Time;durP1;ratioP1;P1;durP2;ratioP2;P2;SDS_P1;SDS_P2;PMS_P1;PMS_P2;Temp;Humidity;BMP_temperature;BMP_pressure;BME280_temperature;BME280_humidity;BME280_pressure;Samples;Min_cycle;Max_cycle;Signal;HPM_P1;HPM_P2
2021/01/24 00:00:04;;;;;;;;;;;12.10;57.00;;;;;;2086718;28;734;-57
2021/01/24 00:01:32;;;;;;;;;;;12.10;57.00;;;;;;2093397;28;757;-58
2021/01/24 00:02:51;;;;;;;;;;;12.10;57.00;;;;;;2097371;28;664;-57
2021/01/24 00:04:10;;;;;;;;;;;12.10;57.00;;;;;;2097994;28;676;-56
2021/01/24 00:05:30;;;;;;;;;;;12.10;57.00;;;;;;2095970;28;1395;-55
2021/01/24 00:06:49;;;;;;;;;;;12.10;57.00;;;;;;2097278;28;746;-57
2021/01/24 00:08:08;;;;;;;;;;;12.00;56.90;;;;;;2094324;28;759;-56
2021/01/24 00:09:27;;;;;;;;;;;12.00;56.90;;;;;;2097537;28;764;-57
2021/01/24 00:10:46;;;;;;;;;;;12.00;57.40;;;;;;2089089;28;705;-56
2021/01/24 00:12:06;;;;;;;;;;;12.00;57.40;;;;;;2094433;28;823;-55
2021/01/24 00:13:25;;;;;;;;;;;12.00;57.40;;;;;;2097251;28;746;-55
2021/01/24 00:14:44;;;;;;;;;;;12.00;57.40;;;;;;2097066;28;1349;-56
2021/01/24 00:16:03;;;;;;;;;;;12.00;57.00;;;;;;2097454;28;705;-55
2021/01/24 00:17:22;;;;;;;;;;;12.00;57.00;;;;;;2097150;28;1910;-55
2021/01/24 00:18:41;;;;;;;;;;;12.00;57.00;;;;;;2095802;28;802;-54
2021/01/24 00:20:01;;;;;;;;;;;12.00;57.00;;;;;;2090893;28;768;-56
2021/01/24 00:21:20;;;;;;;;;;;12.00;57.00;;;;;;2090435;28;750;-57
2021/01/24 00:22:40;;;;;;;;;;;12.00;57.00;;;;;;2096872;28;710;-58
2021/01/24 00:23:59;;;;;;;;;;;12.00;57.00;;;;;;2079682;28;956;-58
2021/01/24 00:25:18;;;;;;;;;;;12.00;57.00;;;;;;2080293;28;1393;-56
2021/01/24 00:26:37;;;;;;;;;;;12.00;57.10;;;;;;2092175;28;751;-58
2021/01/24 00:27:57;;;;;;;;;;;12.00;57.10;;;;;;2094910;28;1525;-58
2021/01/24 00:29:16;;;;;;;;;;;12.00;57.60;;;;;;2079539;28;718;-58
2021/01/24 00:30:35;;;;;;;;;;;12.00;57.00;;;;;;2078470;28;797;-58
2021/01/24 00:31:54;;;;;;;;;;;12.00;57.60;;;;;;2078670;28;701;-55
2021/01/24 00:33:13;;;;;;;;;;;12.00;57.10;;;;;;2081398;28;730;-57
2021/01/24 00:34:33;;;;;;;;;;;12.00;57.10;;;;;;2076578;28;757;-56
2021/01/24 00:35:52;;;;;;;;;;;12.00;57.20;;;;;;2078366;28;726;-57
2021/01/24 00:37:12;;;;;;;;;;;12.00;57.10;;;;;;2080941;28;2035;-58
2021/01/24 00:38:31;;;;;;;;;;;12.00;57.10;;;;;;2072611;28;720;-54
2021/01/24 00:39:51;;;;;;;;;;;12.00;57.10;;;;;;2077836;28;762;-54
2021/01/24 00:41:10;;;;;;;;;;;11.90;57.00;;;;;;2072525;28;695;-58
2021/01/24 00:42:29;;;;;;;;;;;12.00;57.20;;;;;;2077595;28;685;-57
2021/01/24 00:43:48;;;;;;;;;;;12.00;57.20;;;;;;2081296;28;714;-56
2021/01/24 00:45:08;;;;;;;;;;;11.90;57.10;;;;;;2080313;28;1481;-57
2021/01/24 00:46:27;;;;;;;;;;;11.90;57.70;;;;;;2080826;28;697;-57
2021/01/24 00:47:46;;;;;;;;;;;11.90;57.10;;;;;;2081415;28;718;-57
2021/01/24 00:49:05;;;;;;;;;;;11.90;57.10;;;;;;2080730;28;719;-56
2021/01/24 00:50:24;;;;;;;;;;;11.90;57.20;;;;;;2081147;28;644;-56
2021/01/24 00:51:44;;;;;;;;;;;11.90;57.20;;;;;;2080803;28;761;-55
2021/01/24 00:53:03;;;;;;;;;;;11.90;57.20;;;;;;2079988;28;721;-55
2021/01/24 00:54:23;;;;;;;;;;;11.90;57.20;;;;;;2097402;28;1121;-57
2021/01/24 00:55:42;;;;;;;;;;;11.90;57.20;;;;;;2085110;28;1107;-57
2021/01/24 00:57:01;;;;;;;;;;;11.90;57.30;;;;;;2097589;28;696;-57
2021/01/24 00:58:20;;;;;;;;;;;11.90;57.20;;;;;;2088901;28;681;-55
2021/01/24 00:59:40;;;;;;;;;;;11.90;57.20;;;;;;2077223;28;840;-56
2021/01/24 01:00:59;;;;;;;;;;;11.90;57.30;;;;;;2087491;28;734;-57
2021/01/24 01:02:18;;;;;;;;;;;11.90;57.30;;;;;;2097610;28;673;-55
2021/01/24 01:03:37;;;;;;;;;;;11.90;57.30;;;;;;2096893;28;751;-57
2021/01/24 01:04:56;;;;;;;;;;;11.90;57.30;;;;;;2088260;28;1443;-55
2021/01/24 01:06:16;;;;;;;;;;;11.90;57.30;;;;;;2107633;28;690;-55
2021/01/24 01:07:35;;;;;;;;;;;11.90;57.90;;;;;;2091988;28;742;-56
2021/01/24 01:08:54;;;;;;;;;;;11.90;57.30;;;;;;2094311;28;700;-56
2021/01/24 01:10:13;;;;;;;;;;;11.90;57.30;;;;;;2089008;28;722;-57
2021/01/24 01:11:32;;;;;;;;;;;11.90;57.40;;;;;;2093964;28;914;-57
2021/01/24 01:12:52;;;;;;;;;;;11.90;57.30;;;;;;2097792;28;708;-57
2021/01/24 01:14:11;;;;;;;;;;;11.90;57.40;;;;;;2097071;28;668;-56
2021/01/24 01:15:30;;;;;;;;;;;11.90;57.40;;;;;;2098029;28;1470;-56
2021/01/24 01:16:49;;;;;;;;;;;11.90;57.40;;;;;;2099171;28;613;-57
2021/01/24 01:18:08;;;;;;;;;;;11.90;57.50;;;;;;2098884;28;1930;-57
2021/01/24 01:19:28;;;;;;;;;;;11.90;57.50;;;;;;2099266;28;680;-57
2021/01/24 01:20:47;;;;;;;;;;;11.80;57.50;;;;;;2098645;28;732;-55
2021/01/24 01:22:06;;;;;;;;;;;11.80;57.40;;;;;;2098902;28;697;-55
2021/01/24 01:23:25;;;;;;;;;;;11.80;57.40;;;;;;2093884;28;1038;-56
2021/01/24 01:24:44;;;;;;;;;;;11.80;57.40;;;;;;2094941;28;1406;-58
2021/01/24 01:26:04;;;;;;;;;;;11.80;57.40;;;;;;2095927;28;1035;-57
2021/01/24 01:27:23;;;;;;;;;;;11.80;57.50;;;;;;2098700;28;716;-56
2021/01/24 01:28:42;;;;;;;;;;;11.80;57.50;;;;;;2095366;28;726;-57
2021/01/24 01:30:03;;;;;;;;;;;11.80;57.40;;;;;;2095205;28;1132;-55
2021/01/24 01:31:22;;;;;;;;;;;11.80;57.40;;;;;;2098093;28;1083;-55
2021/01/24 01:32:41;;;;;;;;;;;11.80;57.50;;;;;;2097455;28;1083;-56
2021/01/24 01:34:00;;;;;;;;;;;11.80;57.50;;;;;;2099136;28;699;-55
2021/01/24 01:35:19;;;;;;;;;;;11.80;57.50;;;;;;2098430;28;1345;-56
2021/01/24 01:36:39;;;;;;;;;;;11.80;57.50;;;;;;2090285;28;698;-55
2021/01/24 01:37:58;;;;;;;;;;;11.80;57.60;;;;;;2095380;28;1979;-56
2021/01/24 01:39:17;;;;;;;;;;;11.80;57.50;;;;;;2099057;28;625;-58
2021/01/24 01:40:36;;;;;;;;;;;11.80;57.60;;;;;;2098918;28;702;-58
2021/01/24 01:41:55;;;;;;;;;;;11.80;58.10;;;;;;2099117;28;696;-57
2021/01/24 01:43:15;;;;;;;;;;;11.80;57.60;;;;;;2098324;28;723;-57
2021/01/24 01:44:34;;;;;;;;;;;11.80;58.20;;;;;;2095052;28;631;-56
2021/01/24 01:45:53;;;;;;;;;;;11.80;57.60;;;;;;2098400;28;717;-58
2021/01/24 01:47:13;;;;;;;;;;;11.80;57.70;;;;;;2086610;28;708;-57
2021/01/24 01:48:32;;;;;;;;;;;11.80;57.70;;;;;;2095421;28;648;-58
2021/01/24 01:49:58;;;;;;;;;;;11.80;57.60;;;;;;2098397;28;712;-58
2021/01/24 01:51:17;;;;;;;;;;;11.80;57.70;;;;;;2098976;28;763;-58
2021/01/24 01:52:36;;;;;;;;;;;11.80;58.20;;;;;;2099098;28;714;-57
2021/01/24 01:53:55;;;;;;;;;;;11.80;58.20;;;;;;2081905;28;977;-57
2021/01/24 01:55:14;;;;;;;;;;;11.70;58.10;;;;;;2082178;28;1503;-58
2021/01/24 01:56:33;;;;;;;;;;;11.80;57.60;;;;;;2083807;28;724;-57
2021/01/24 01:57:54;;;;;;;;;;;11.80;57.60;;;;;;2095191;28;1965;-58
2021/01/24 01:59:13;;;;;;;;;;;11.80;57.60;;;;;;2099089;28;806;-57
2021/01/24 02:00:33;;;;;;;;;;;11.80;57.70;;;;;;2098974;28;637;-58
2021/01/24 02:01:52;;;;;;;;;;;11.80;57.60;;;;;;2097678;28;748;-58
2021/01/24 02:03:14;;;;;;;;;;;11.70;57.60;;;;;;2098678;28;738;-57
2021/01/24 02:04:48;;;;;;;;;;;11.70;57.60;;;;;;2098881;28;618;-57
2021/01/24 02:06:20;;;;;;;;;;;11.70;58.10;;;;;;2098286;28;731;-56
2021/01/24 02:07:42;;;;;;;;;;;11.70;58.20;;;;;;2096572;28;757;-57
2021/01/24 02:09:08;;;;;;;;;;;11.70;57.70;;;;;;2090152;28;689;-57
2021/01/24 02:10:29;;;;;;;;;;;11.70;57.70;;;;;;2095828;28;702;-57
2021/01/24 02:11:48;;;;;;;;;;;11.70;57.70;;;;;;2095155;28;950;-56
2021/01/24 02:13:19;;;;;;;;;;;11.70;57.70;;;;;;2095181;28;700;-56
2021/01/24 02:14:39;;;;;;;;;;;11.70;57.70;;;;;;2098692;28;738;-57
2021/01/24 02:15:58;;;;;;;;;;;11.70;57.80;;;;;;2081585;28;751;-56
2021/01/24 02:17:18;;;;;;;;;;;11.70;57.70;;;;;;2088385;28;1906;-56
2021/01/24 02:18:37;;;;;;;;;;;11.70;57.80;;;;;;2094675;28;722;-55
2021/01/24 02:20:00;;;;;;;;;;;11.70;57.80;;;;;;2089926;28;752;-56
2021/01/24 02:21:30;;;;;;;;;;;11.70;57.80;;;;;;2095955;28;708;-57
2021/01/24 02:22:49;;;;;;;;;;;11.70;57.80;;;;;;2096694;28;996;-56
2021/01/24 02:24:09;;;;;;;;;;;11.70;58.30;;;;;;2089738;28;1040;-58
2021/01/24 02:25:36;;;;;;;;;;;11.70;57.80;;;;;;2075291;28;1889;-57
2021/01/24 02:27:06;;;;;;;;;;;11.70;57.80;;;;;;2093596;28;745;-56
2021/01/24 02:28:43;;;;;;;;;;;11.60;57.80;;;;;;2097248;28;745;-57
2021/01/24 02:30:18;;;;;;;;;;;11.70;57.80;;;;;;2093965;28;1359;-56
2021/01/24 02:31:37;;;;;;;;;;;11.70;57.80;;;;;;2096045;28;753;-56
2021/01/24 02:32:59;;;;;;;;;;;11.60;57.80;;;;;;2091226;28;833;-58
2021/01/24 02:34:18;;;;;;;;;;;11.70;58.40;;;;;;2078843;28;761;-55
2021/01/24 02:35:40;;;;;;;;;;;11.70;57.80;;;;;;2091255;28;1390;-58
2021/01/24 02:36:59;;;;;;;;;;;11.60;57.80;;;;;;2089739;28;739;-58
2021/01/24 02:38:18;;;;;;;;;;;11.60;57.80;;;;;;2091811;28;717;-57
2021/01/24 02:39:38;;;;;;;;;;;11.60;57.80;;;;;;2103053;28;772;-58
2021/01/24 02:40:58;;;;;;;;;;;11.60;57.80;;;;;;2089539;28;742;-56
2021/01/24 02:42:17;;;;;;;;;;;11.60;57.90;;;;;;2094704;28;701;-57
2021/01/24 02:43:36;;;;;;;;;;;11.60;57.90;;;;;;2078503;28;710;-57
2021/01/24 02:44:56;;;;;;;;;;;11.60;57.90;;;;;;2090884;28;1451;-58
2021/01/24 02:46:16;;;;;;;;;;;11.60;57.90;;;;;;2094740;28;649;-58
2021/01/24 02:47:36;;;;;;;;;;;11.60;58.40;;;;;;2086334;28;795;-58
2021/01/24 02:48:55;;;;;;;;;;;11.60;57.90;;;;;;2089647;28;701;-58
2021/01/24 02:50:14;;;;;;;;;;;11.60;57.90;;;;;;2094881;28;711;-57
2021/01/24 02:51:33;;;;;;;;;;;11.60;57.90;;;;;;2098117;28;720;-58
2021/01/24 02:52:52;;;;;;;;;;;11.60;57.90;;;;;;2096959;28;953;-56
2021/01/24 02:54:12;;;;;;;;;;;11.60;57.90;;;;;;2092881;28;1047;-57
2021/01/24 02:55:31;;;;;;;;;;;11.60;57.90;;;;;;2079428;28;1371;-58
2021/01/24 02:56:50;;;;;;;;;;;11.60;57.90;;;;;;2098351;28;720;-58
2021/01/24 02:58:10;;;;;;;;;;;11.60;58.00;;;;;;2097563;28;1910;-57
2021/01/24 02:59:29;;;;;;;;;;;11.60;58.00;;;;;;2097499;28;676;-58
2021/01/24 03:00:48;;;;;;;;;;;11.60;58.00;;;;;;2097871;28;803;-57
2021/01/24 03:02:07;;;;;;;;;;;11.60;58.10;;;;;;2094359;28;749;-54
2021/01/24 03:03:26;;;;;;;;;;;11.60;58.50;;;;;;2098314;28;784;-57
2021/01/24 03:04:45;;;;;;;;;;;11.60;58.50;;;;;;2096845;28;1378;-59
2021/01/24 03:06:05;;;;;;;;;;;11.60;58.00;;;;;;2097741;28;765;-56
2021/01/24 03:07:24;;;;;;;;;;;11.60;57.90;;;;;;2094755;28;691;-55
2021/01/24 03:08:43;;;;;;;;;;;11.60;57.90;;;;;;2094422;28;776;-57
2021/01/24 03:10:02;;;;;;;;;;;11.60;58.00;;;;;;2097623;28;729;-56
2021/01/24 03:11:22;;;;;;;;;;;11.60;58.00;;;;;;2098078;28;790;-57
2021/01/24 03:12:47;;;;;;;;;;;11.60;58.00;;;;;;2098289;28;677;-59
2021/01/24 03:14:25;;;;;;;;;;;11.60;58.00;;;;;;2098454;28;673;-58
2021/01/24 03:15:44;;;;;;;;;;;11.60;58.60;;;;;;2098469;28;691;-55
2021/01/24 03:17:03;;;;;;;;;;;11.60;58.10;;;;;;2097819;28;702;-57
2021/01/24 03:18:24;;;;;;;;;;;11.60;58.10;;;;;;2098242;28;709;-56
2021/01/24 03:19:44;;;;;;;;;;;11.50;58.00;;;;;;2086987;28;737;-56
2021/01/24 03:21:03;;;;;;;;;;;11.50;58.10;;;;;;2090392;28;779;-56
2021/01/24 03:22:22;;;;;;;;;;;11.50;58.00;;;;;;2093967;28;765;-56
2021/01/24 03:23:41;;;;;;;;;;;11.50;58.00;;;;;;2086421;28;976;-56
2021/01/24 03:25:01;;;;;;;;;;;11.50;58.10;;;;;;2087745;28;1272;-57
2021/01/24 03:26:20;;;;;;;;;;;11.50;58.10;;;;;;2081104;28;1024;-56
2021/01/24 03:27:39;;;;;;;;;;;11.50;58.10;;;;;;2073437;28;772;-56
2021/01/24 03:28:58;;;;;;;;;;;11.50;58.00;;;;;;2080384;28;761;-57
2021/01/24 03:30:18;;;;;;;;;;;11.50;58.10;;;;;;2079059;28;722;-57
2021/01/24 03:31:41;;;;;;;;;;;11.50;58.00;;;;;;2080547;28;807;-56
2021/01/24 03:33:00;;;;;;;;;;;11.50;57.90;;;;;;2081220;28;711;-56
2021/01/24 03:34:20;;;;;;;;;;;11.50;58.00;;;;;;2089024;28;721;-56
2021/01/24 03:35:39;;;;;;;;;;;11.50;58.00;;;;;;2088336;28;1365;-58
2021/01/24 03:36:58;;;;;;;;;;;11.50;58.00;;;;;;2080919;28;746;-57
2021/01/24 03:38:17;;;;;;;;;;;11.50;58.00;;;;;;2081338;28;701;-58
2021/01/24 03:39:37;;;;;;;;;;;11.50;57.90;;;;;;2081156;28;722;-58
2021/01/24 03:40:56;;;;;;;;;;;11.50;58.50;;;;;;2089021;28;712;-58
2021/01/24 03:42:15;;;;;;;;;;;11.50;58.40;;;;;;2084455;28;752;-56
2021/01/24 03:43:34;;;;;;;;;;;11.60;57.90;;;;;;2077812;28;823;-58
2021/01/24 03:44:54;;;;;;;;;;;11.60;57.90;;;;;;2080487;28;1377;-57
2021/01/24 03:46:13;;;;;;;;;;;11.50;57.80;;;;;;2097490;28;681;-59
2021/01/24 03:47:32;;;;;;;;;;;11.60;57.80;;;;;;2087742;28;791;-58
2021/01/24 03:48:51;;;;;;;;;;;11.60;57.90;;;;;;2089406;28;730;-58
2021/01/24 03:50:12;;;;;;;;;;;11.60;57.80;;;;;;2084226;28;727;-59
2021/01/24 03:51:32;;;;;;;;;;;11.60;57.90;;;;;;2088995;28;852;-57
2021/01/24 03:52:51;;;;;;;;;;;11.60;57.80;;;;;;2079418;28;1962;-57
2021/01/24 03:54:10;;;;;;;;;;;11.60;57.80;;;;;;2089083;28;1008;-58
2021/01/24 03:55:29;;;;;;;;;;;11.60;57.90;;;;;;2085017;28;1395;-58
2021/01/24 03:56:48;;;;;;;;;;;11.60;57.80;;;;;;2102161;28;1065;-58
2021/01/24 03:58:07;;;;;;;;;;;11.60;58.30;;;;;;2087527;28;3763;-58
2021/01/24 03:59:26;;;;;;;;;;;11.60;57.80;;;;;;2089025;28;900;-58
2021/01/24 04:00:46;;;;;;;;;;;11.60;57.80;;;;;;2092608;28;980;-58
2021/01/24 04:02:05;;;;;;;;;;;11.50;57.70;;;;;;2095224;28;988;-59
2021/01/24 04:03:24;;;;;;;;;;;11.60;57.70;;;;;;2080643;28;1043;-59
2021/01/24 04:04:44;;;;;;;;;;;11.60;57.80;;;;;;2093874;28;1446;-59
2021/01/24 04:06:03;;;;;;;;;;;11.60;57.70;;;;;;2089097;28;1469;-59
2021/01/24 04:07:22;;;;;;;;;;;11.60;57.80;;;;;;2096698;28;739;-58
2021/01/24 04:08:41;;;;;;;;;;;11.60;57.80;;;;;;2087705;28;653;-59
2021/01/24 04:10:01;;;;;;;;;;;11.50;57.70;;;;;;2080865;28;746;-57
2021/01/24 04:11:20;;;;;;;;;;;11.60;57.80;;;;;;2077523;28;804;-57
2021/01/24 04:12:39;;;;;;;;;;;11.60;57.80;;;;;;2084084;28;1204;-59
2021/01/24 04:13:59;;;;;;;;;;;11.60;57.80;;;;;;2089349;28;733;-57
2021/01/24 04:15:18;;;;;;;;;;;11.50;58.20;;;;;;2079776;28;2194;-57
2021/01/24 04:16:37;;;;;;;;;;;11.50;58.20;;;;;;2083096;28;951;-59
2021/01/24 04:17:56;;;;;;;;;;;11.60;57.70;;;;;;2080482;28;2015;-55
2021/01/24 04:19:16;;;;;;;;;;;11.60;57.80;;;;;;2086261;28;1191;-59
2021/01/24 04:20:35;;;;;;;;;;;11.60;57.80;;;;;;2082551;28;1061;-56
2021/01/24 04:21:54;;;;;;;;;;;11.60;57.70;;;;;;2088955;28;1035;-57
2021/01/24 04:23:13;;;;;;;;;;;11.50;57.60;;;;;;2089425;28;1059;-56
2021/01/24 04:24:33;;;;;;;;;;;11.60;57.70;;;;;;2089519;28;1357;-57
2021/01/24 04:25:52;;;;;;;;;;;11.60;57.70;;;;;;2093793;28;975;-56
2021/01/24 04:27:11;;;;;;;;;;;11.50;57.60;;;;;;2089530;28;1641;-56
2021/01/24 04:28:30;;;;;;;;;;;11.60;57.80;;;;;;2089080;28;717;-59
2021/01/24 04:29:50;;;;;;;;;;;11.50;57.60;;;;;;2080807;28;660;-57
2021/01/24 04:31:09;;;;;;;;;;;11.60;57.80;;;;;;2085782;28;787;-56
2021/01/24 04:32:28;;;;;;;;;;;11.60;57.80;;;;;;2089263;28;692;-57
2021/01/24 04:33:47;;;;;;;;;;;11.50;57.60;;;;;;2089703;28;709;-57
2021/01/24 04:35:06;;;;;;;;;;;11.50;58.20;;;;;;2088770;28;1422;-57
2021/01/24 04:36:25;;;;;;;;;;;11.50;57.70;;;;;;2088751;28;1229;-58
2021/01/24 04:37:44;;;;;;;;;;;11.50;57.70;;;;;;2088569;28;1903;-59
2021/01/24 04:39:04;;;;;;;;;;;11.50;57.70;;;;;;2088704;28;951;-57
2021/01/24 04:40:23;;;;;;;;;;;11.50;57.70;;;;;;2089338;28;754;-58
2021/01/24 04:41:43;;;;;;;;;;;11.50;57.70;;;;;;2089105;28;642;-58
2021/01/24 04:43:02;;;;;;;;;;;11.50;57.70;;;;;;2080478;28;720;-57
2021/01/24 04:44:21;;;;;;;;;;;11.50;57.70;;;;;;2080935;28;629;-58
2021/01/24 04:45:41;;;;;;;;;;;11.50;57.70;;;;;;2081821;28;1577;-58
2021/01/24 04:47:00;;;;;;;;;;;11.50;57.80;;;;;;2077588;28;1507;-56
2021/01/24 04:48:19;;;;;;;;;;;11.50;57.80;;;;;;2075402;28;1258;-58
2021/01/24 04:49:38;;;;;;;;;;;11.50;57.70;;;;;;2099759;28;790;-57
2021/01/24 04:50:58;;;;;;;;;;;11.50;58.20;;;;;;2110462;28;734;-58
2021/01/24 04:52:17;;;;;;;;;;;11.50;58.30;;;;;;2103309;28;1029;-59
2021/01/24 04:53:37;;;;;;;;;;;11.50;58.30;;;;;;2091673;28;1356;-56
2021/01/24 04:54:56;;;;;;;;;;;11.50;58.30;;;;;;2089201;28;1375;-59
2021/01/24 04:56:15;;;;;;;;;;;11.50;57.80;;;;;;2101987;28;1311;-56
2021/01/24 04:57:35;;;;;;;;;;;11.50;57.80;;;;;;2092968;28;1971;-56
2021/01/24 04:58:54;;;;;;;;;;;11.50;57.80;;;;;;2089318;28;1327;-55
2021/01/24 05:00:13;;;;;;;;;;;11.50;57.80;;;;;;2090403;28;1029;-58
2021/01/24 05:01:33;;;;;;;;;;;11.50;57.80;;;;;;2090067;28;1156;-58
2021/01/24 05:02:52;;;;;;;;;;;11.50;57.80;;;;;;2085496;28;1446;-57
2021/01/24 05:04:11;;;;;;;;;;;11.50;57.80;;;;;;2087256;28;1235;-58
2021/01/24 05:05:31;;;;;;;;;;;11.50;57.80;;;;;;2088454;28;1381;-56
2021/01/24 05:06:50;;;;;;;;;;;11.50;57.80;;;;;;2088953;28;1335;-58
2021/01/24 05:08:09;;;;;;;;;;;11.50;57.80;;;;;;2089103;28;1270;-56
2021/01/24 05:09:28;;;;;;;;;;;11.50;58.40;;;;;;2089042;28;1013;-58
2021/01/24 05:10:53;;;;;;;;;;;11.50;58.40;;;;;;2087016;28;1355;-58
2021/01/24 05:12:13;;;;;;;;;;;11.50;57.80;;;;;;2088700;28;1220;-57
2021/01/24 05:13:32;;;;;;;;;;;11.50;57.80;;;;;;2089457;28;1426;-57
2021/01/24 05:14:51;;;;;;;;;;;11.50;57.80;;;;;;2087884;28;1478;-57
2021/01/24 05:16:10;;;;;;;;;;;11.50;57.80;;;;;;2090756;28;1119;-56
2021/01/24 05:17:30;;;;;;;;;;;11.50;57.80;;;;;;2089929;28;1914;-58
2021/01/24 05:18:55;;;;;;;;;;;11.50;57.80;;;;;;2087821;28;1039;-59
2021/01/24 05:20:14;;;;;;;;;;;11.50;57.80;;;;;;2081937;28;1306;-55
2021/01/24 05:21:34;;;;;;;;;;;11.50;57.80;;;;;;2099173;28;1212;-59
2021/01/24 05:22:57;;;;;;;;;;;11.50;57.90;;;;;;2091878;28;1394;-59
2021/01/24 05:24:17;;;;;;;;;;;11.50;57.90;;;;;;2091907;28;1249;-59
2021/01/24 05:25:36;;;;;;;;;;;11.50;57.90;;;;;;2093365;28;1556;-56
2021/01/24 05:26:55;;;;;;;;;;;11.50;57.90;;;;;;2088275;28;1308;-57
2021/01/24 05:28:21;;;;;;;;;;;11.50;58.50;;;;;;2092167;28;1224;-58
2021/01/24 05:29:41;;;;;;;;;;;11.50;58.00;;;;;;2101038;28;1212;-58
2021/01/24 05:31:03;;;;;;;;;;;11.50;57.90;;;;;;2105701;28;1141;-57
2021/01/24 05:32:22;;;;;;;;;;;11.50;58.00;;;;;;2093817;28;1104;-57
2021/01/24 05:33:42;;;;;;;;;;;11.50;58.50;;;;;;2091483;28;1251;-59
2021/01/24 05:35:01;;;;;;;;;;;11.40;57.90;;;;;;2091184;28;1401;-57
2021/01/24 05:36:21;;;;;;;;;;;11.40;58.00;;;;;;2097207;28;1223;-54
2021/01/24 05:37:40;;;;;;;;;;;11.40;58.40;;;;;;2086185;28;1902;-57
2021/01/24 05:39:00;;;;;;;;;;;11.50;59.10;;;;;;2086730;28;1192;-55
2021/01/24 05:40:19;;;;;;;;;;;11.50;59.30;;;;;;2089127;28;1265;-56
2021/01/24 05:41:39;;;;;;;;;;;11.50;59.50;;;;;;2077220;28;1401;-56
2021/01/24 05:42:58;;;;;;;;;;;11.50;59.50;;;;;;2090122;28;1247;-56
2021/01/24 05:44:17;;;;;;;;;;;11.50;59.40;;;;;;2091804;28;1326;-56
2021/01/24 05:45:37;;;;;;;;;;;11.50;59.60;;;;;;2090438;28;1413;-58
2021/01/24 05:47:02;;;;;;;;;;;11.50;59.70;;;;;;2089097;28;1239;-58
2021/01/24 05:48:22;;;;;;;;;;;11.50;59.60;;;;;;2091525;28;881;-57
2021/01/24 05:49:42;;;;;;;;;;;11.50;59.60;;;;;;2081908;28;1361;-58
2021/01/24 05:51:02;;;;;;;;;;;11.50;59.60;;;;;;2082746;28;1225;-58
2021/01/24 05:52:21;;;;;;;;;;;11.50;59.50;;;;;;2086861;28;1066;-59
2021/01/24 05:53:43;;;;;;;;;;;11.50;59.70;;;;;;2079152;28;1234;-56
2021/01/24 05:55:02;;;;;;;;;;;11.40;59.60;;;;;;2085801;28;1439;-58
2021/01/24 05:56:21;;;;;;;;;;;11.40;60.10;;;;;;2090914;28;1065;-57
2021/01/24 05:57:42;;;;;;;;;;;11.40;60.30;;;;;;2082518;28;1902;-57
2021/01/24 05:59:02;;;;;;;;;;;11.40;59.60;;;;;;2083758;28;1232;-58
2021/01/24 06:00:21;;;;;;;;;;;11.40;59.70;;;;;;2076867;28;1118;-57
2021/01/24 06:01:40;;;;;;;;;;;11.40;59.70;;;;;;2079192;28;1352;-57
2021/01/24 06:03:00;;;;;;;;;;;11.40;59.70;;;;;;2073776;28;1166;-57
2021/01/24 06:04:19;;;;;;;;;;;11.40;59.70;;;;;;2082621;28;1130;-57
2021/01/24 06:05:38;;;;;;;;;;;11.40;59.80;;;;;;2085254;28;1520;-56
2021/01/24 06:06:57;;;;;;;;;;;11.40;59.80;;;;;;2088776;28;1031;-56
2021/01/24 06:08:17;;;;;;;;;;;11.30;59.80;;;;;;2086483;28;1229;-55
2021/01/24 06:09:36;;;;;;;;;;;11.40;59.80;;;;;;2085486;28;1091;-58
2021/01/24 06:10:57;;;;;;;;;;;11.40;60.70;;;;;;2078493;28;1063;-59
2021/01/24 06:12:16;;;;;;;;;;;11.40;60.80;;;;;;2087577;28;857;-58
2021/01/24 06:13:35;;;;;;;;;;;11.40;60.00;;;;;;2089162;28;1148;-58
2021/01/24 06:14:55;;;;;;;;;;;11.30;60.00;;;;;;2087956;28;1420;-57
2021/01/24 06:16:17;;;;;;;;;;;11.40;60.10;;;;;;2090198;28;1151;-58
2021/01/24 06:17:37;;;;;;;;;;;11.30;60.00;;;;;;2095189;28;1940;-58
2021/01/24 06:18:56;;;;;;;;;;;11.40;60.10;;;;;;2092549;28;1122;-58
2021/01/24 06:20:16;;;;;;;;;;;11.30;60.00;;;;;;2089271;28;1210;-57
2021/01/24 06:21:37;;;;;;;;;;;11.30;60.10;;;;;;2101863;28;1392;-58
2021/01/24 06:23:01;;;;;;;;;;;11.30;60.10;;;;;;2090087;28;1205;-58
2021/01/24 06:24:37;;;;;;;;;;;11.30;60.00;;;;;;2087192;28;1068;-56
2021/01/24 06:26:01;;;;;;;;;;;11.30;60.10;;;;;;2100140;28;1190;-57
2021/01/24 06:27:21;;;;;;;;;;;11.30;60.10;;;;;;2093523;28;1306;-57
2021/01/24 06:28:43;;;;;;;;;;;11.30;60.80;;;;;;2090562;28;1063;-57
2021/01/24 06:30:06;;;;;;;;;;;11.30;60.10;;;;;;2089334;28;1406;-55
2021/01/24 06:31:25;;;;;;;;;;;11.30;60.10;;;;;;2095822;28;1110;-57
2021/01/24 06:32:44;;;;;;;;;;;11.30;60.80;;;;;;2088328;28;1372;-56
2021/01/24 06:34:04;;;;;;;;;;;11.30;60.20;;;;;;2089479;28;1277;-57
2021/01/24 06:35:25;;;;;;;;;;;11.30;60.20;;;;;;2074109;28;1592;-58
2021/01/24 06:37:02;;;;;;;;;;;11.30;60.10;;;;;;2095414;28;1240;-58
2021/01/24 06:38:28;;;;;;;;;;;11.30;60.10;;;;;;2091911;28;1914;-57
2021/01/24 06:39:51;;;;;;;;;;;11.30;60.10;;;;;;2086096;28;1396;-55
2021/01/24 06:41:11;;;;;;;;;;;11.30;60.30;;;;;;2092277;28;1126;-58
2021/01/24 06:42:48;;;;;;;;;;;11.30;60.30;;;;;;2090500;28;1337;-58
2021/01/24 06:44:27;;;;;;;;;;;11.30;60.50;;;;;;2090616;28;1080;-57
2021/01/24 06:45:46;;;;;;;;;;;11.40;61.10;;;;;;2087149;28;1680;-58
2021/01/24 06:47:24;;;;;;;;;;;11.30;60.70;;;;;;2091249;28;1220;-56
2021/01/24 06:48:50;;;;;;;;;;;11.30;60.50;;;;;;2087847;28;1148;-57
2021/01/24 06:50:27;;;;;;;;;;;11.30;60.70;;;;;;2091015;28;1390;-57
2021/01/24 06:51:47;;;;;;;;;;;11.30;61.10;;;;;;2088693;28;1160;-57
2021/01/24 06:53:06;;;;;;;;;;;11.30;61.20;;;;;;2088693;28;1267;-55
2021/01/24 06:54:25;;;;;;;;;;;11.30;62.10;;;;;;2086646;28;1158;-57
2021/01/24 06:56:01;;;;;;;;;;;11.30;61.40;;;;;;2087654;28;1459;-56
2021/01/24 06:57:20;;;;;;;;;;;11.30;61.60;;;;;;2091121;28;1055;-55
2021/01/24 06:58:50;;;;;;;;;;;11.30;61.70;;;;;;2079566;28;902;-56
2021/01/24 07:00:16;;;;;;;;;;;11.30;61.70;;;;;;2086912;28;966;-57
2021/01/24 07:01:39;;;;;;;;;;;11.20;61.60;;;;;;2086681;28;1135;-57
2021/01/24 07:02:58;;;;;;;;;;;11.30;61.90;;;;;;2088964;28;1172;-55
2021/01/24 07:04:18;;;;;;;;;;;11.30;61.80;;;;;;2087862;28;1160;-55
2021/01/24 07:05:37;;;;;;;;;;;11.30;61.80;;;;;;2090897;28;1526;-58
2021/01/24 07:06:57;;;;;;;;;;;11.20;62.60;;;;;;2092755;28;979;-56
2021/01/24 07:08:29;;;;;;;;;;;11.20;61.80;;;;;;2087555;28;1008;-54
2021/01/24 07:09:48;;;;;;;;;;;11.20;61.80;;;;;;2080460;28;750;-56
2021/01/24 07:11:07;;;;;;;;;;;11.20;61.70;;;;;;2081018;28;667;-55
2021/01/24 07:12:34;;;;;;;;;;;11.20;62.10;;;;;;2088108;28;714;-57
2021/01/24 07:13:53;;;;;;;;;;;11.20;62.00;;;;;;2096808;28;732;-55
2021/01/24 07:15:19;;;;;;;;;;;11.20;62.00;;;;;;2086747;28;1365;-55
2021/01/24 07:16:41;;;;;;;;;;;11.20;62.00;;;;;;2080739;28;701;-58
2021/01/24 07:18:00;;;;;;;;;;;11.20;62.00;;;;;;2080415;28;1910;-57
2021/01/24 07:19:19;;;;;;;;;;;11.20;62.00;;;;;;2088713;28;725;-56
2021/01/24 07:20:39;;;;;;;;;;;11.20;62.00;;;;;;2084101;28;717;-54
2021/01/24 07:21:58;;;;;;;;;;;11.20;62.10;;;;;;2094157;28;740;-57
2021/01/24 07:23:18;;;;;;;;;;;11.20;62.30;;;;;;2088604;28;997;-53
2021/01/24 07:24:37;;;;;;;;;;;11.20;63.80;;;;;;2097344;28;932;-57
2021/01/24 07:25:56;;;;;;;;;;;11.20;63.80;;;;;;2087106;28;1043;-55
2021/01/24 07:27:16;;;;;;;;;;;11.30;63.00;;;;;;2085932;28;740;-56
2021/01/24 07:28:36;;;;;;;;;;;11.30;62.90;;;;;;2080851;28;1325;-57
2021/01/24 07:29:55;;;;;;;;;;;11.30;62.70;;;;;;2077320;28;927;-54
2021/01/24 07:31:14;;;;;;;;;;;11.20;63.00;;;;;;2078333;28;1087;-57
2021/01/24 07:32:34;;;;;;;;;;;11.20;63.40;;;;;;2074863;28;1414;-57
2021/01/24 07:33:54;;;;;;;;;;;11.20;64.00;;;;;;2081807;28;1418;-57
2021/01/24 07:35:13;;;;;;;;;;;11.20;64.40;;;;;;2085980;28;1429;-57
2021/01/24 07:36:35;;;;;;;;;;;11.20;64.60;;;;;;2088877;28;1375;-57
2021/01/24 07:37:54;;;;;;;;;;;11.20;64.80;;;;;;2093286;28;1902;-57
2021/01/24 07:39:13;;;;;;;;;;;11.20;64.80;;;;;;2088163;28;1160;-57
2021/01/24 07:40:32;;;;;;;;;;;11.20;65.00;;;;;;2089869;28;1056;-57
2021/01/24 07:41:52;;;;;;;;;;;11.20;65.10;;;;;;2088058;28;1060;-57
2021/01/24 07:43:11;;;;;;;;;;;11.20;65.10;;;;;;2089817;28;1139;-57
2021/01/24 07:44:30;;;;;;;;;;;11.20;65.40;;;;;;2089083;28;1042;-58
2021/01/24 07:45:50;;;;;;;;;;;11.20;65.30;;;;;;2070222;28;1094;-58
2021/01/24 07:47:09;;;;;;;;;;;11.20;65.10;;;;;;2078699;28;1156;-55
2021/01/24 07:48:28;;;;;;;;;;;11.20;65.50;;;;;;2086159;28;1144;-57
2021/01/24 07:49:48;;;;;;;;;;;11.10;65.20;;;;;;2082939;28;1009;-57
2021/01/24 07:51:07;;;;;;;;;;;11.20;65.30;;;;;;2083717;28;1192;-56
2021/01/24 07:52:26;;;;;;;;;;;11.20;65.30;;;;;;2074163;28;1227;-56
2021/01/24 07:53:45;;;;;;;;;;;11.20;65.50;;;;;;2081846;28;1209;-56
2021/01/24 07:55:04;;;;;;;;;;;11.20;65.40;;;;;;2082508;28;1502;-57
2021/01/24 07:56:23;;;;;;;;;;;11.10;65.50;;;;;;2072712;28;1140;-56
2021/01/24 07:57:43;;;;;;;;;;;11.10;66.30;;;;;;2081812;28;2003;-56